createdAt,value
2018-09-06T00:04:05.850Z,48.38
2018-09-06T00:14:08.322Z,49.00
2018-09-06T00:24:10.789Z,48.79
2018-09-06T00:34:13.205Z,48.91
2018-09-06T00:44:15.706Z,49.13
2018-09-06T00:54:18.076Z,48.40
2018-09-06T01:04:21.069Z,48.25
2018-09-06T01:14:24.049Z,48.07
2018-09-06T01:24:26.420Z,48.27
2018-09-06T01:34:29.333Z,48.63
2018-09-06T01:44:31.720Z,48.21
2018-09-06T01:54:34.267Z,47.94
2018-09-06T02:04:37.231Z,48.08
2018-09-06T02:14:39.723Z,48.14
2018-09-06T02:24:42.144Z,48.54
2018-09-06T02:34:44.589Z,49.02
2018-09-06T02:44:47.284Z,48.82
2018-09-06T02:54:50.430Z,47.79
2018-09-06T03:04:52.900Z,48.76
2018-09-06T03:14:55.313Z,48.37
2018-09-06T03:24:58.310Z,48.58
2018-09-06T03:35:00.719Z,48.10
2018-09-06T03:45:03.683Z,48.15
2018-09-06T03:55:06.165Z,47.96
2018-09-06T04:05:08.733Z,48.07
2018-09-06T04:15:11.179Z,47.96
2018-09-06T04:25:13.526Z,47.92
2018-09-06T04:35:16.063Z,48.69
2018-09-06T04:45:18.404Z,48.29
2018-09-06T04:55:21.785Z,47.91
2018-09-06T05:05:24.033Z,47.98
2018-09-06T05:15:27.066Z,48.42
2018-09-06T05:25:30.130Z,48.52
2018-09-06T05:35:33.170Z,48.48
2018-09-06T05:45:35.852Z,48.20
2018-09-06T05:55:38.353Z,48.07
2018-09-06T06:05:40.833Z,47.49
2018-09-06T06:15:43.392Z,47.86
2018-09-06T06:25:45.907Z,48.29
2018-09-06T06:35:48.365Z,50.59
2018-09-06T06:45:50.733Z,48.79
2018-09-06T06:55:53.213Z,50.40
2018-09-06T07:05:55.704Z,51.62
2018-09-06T07:15:58.073Z,49.96
2018-09-06T07:26:00.488Z,48.75
2018-09-06T07:36:02.929Z,48.87
2018-09-06T07:46:05.626Z,49.80
2018-09-06T07:56:08.260Z,50.22
2018-09-06T08:06:10.724Z,48.89
2018-09-06T08:16:13.272Z,49.03
2018-09-06T08:26:15.803Z,49.13
2018-09-06T08:36:18.395Z,49.74
2018-09-06T08:46:21.016Z,48.24
2018-09-06T08:56:23.537Z,49.01
2018-09-06T09:06:26.041Z,47.41
2018-09-06T09:16:28.406Z,47.80
2018-09-06T09:26:30.951Z,47.05
2018-09-06T09:36:33.941Z,46.53
2018-09-06T09:56:38.448Z,46.45
2018-09-06T10:06:46.400Z,46.67
2018-09-06T10:16:48.905Z,45.44
2018-09-06T10:26:51.405Z,45.40
2018-09-06T10:36:53.899Z,45.58
2018-09-06T10:46:56.224Z,45.04
2018-09-06T10:56:58.618Z,44.65
2018-09-06T11:07:01.075Z,43.82
2018-09-06T11:17:03.748Z,44.19
2018-09-06T11:27:07.248Z,44.24
2018-09-06T11:37:09.708Z,44.74
2018-09-06T11:47:12.231Z,44.64
2018-09-06T11:57:14.793Z,43.78
2018-09-06T12:07:17.263Z,45.12
2018-09-06T12:17:19.761Z,45.73
2018-09-06T12:27:22.099Z,44.70
2018-09-06T12:37:24.616Z,42.65
2018-09-06T12:47:27.212Z,45.30
2018-09-06T12:57:29.650Z,45.15
2018-09-06T13:07:32.034Z,44.25
2018-09-06T13:17:34.527Z,44.11
2018-09-06T13:27:37.055Z,45.38
2018-09-06T13:37:39.560Z,44.93
2018-09-06T13:47:41.898Z,44.19
2018-09-06T13:57:44.414Z,45.52
2018-09-06T14:07:46.786Z,42.97
2018-09-06T14:17:49.302Z,42.42
2018-09-06T14:27:52.246Z,42.22
2018-09-06T14:37:55.236Z,44.36
2018-09-06T14:47:58.179Z,43.43
2018-09-06T14:58:01.240Z,44.50
2018-09-06T15:08:04.205Z,42.57
2018-09-06T15:18:07.226Z,43.72
2018-09-06T15:28:10.297Z,46.15
2018-09-06T15:38:13.371Z,42.88
2018-09-06T15:48:16.385Z,42.05
2018-09-06T15:58:19.510Z,42.31
2018-09-06T16:08:22.728Z,42.50
2018-09-06T16:18:25.833Z,42.40
2018-09-06T16:28:28.952Z,43.09
2018-09-06T16:38:32.057Z,42.10
2018-09-06T16:48:35.213Z,42.22
2018-09-06T16:58:38.576Z,42.34
2018-09-06T17:08:41.722Z,43.16
2018-09-06T17:18:44.768Z,43.04
2018-09-06T17:28:47.758Z,43.20
2018-09-06T17:38:51.012Z,42.23
2018-09-06T17:48:54.125Z,42.72
2018-09-06T17:58:57.345Z,41.57
2018-09-06T18:09:00.296Z,41.46
2018-09-06T18:19:03.233Z,41.90
2018-09-06T18:29:06.345Z,44.11
2018-09-06T18:39:09.263Z,43.72
2018-09-06T18:49:12.212Z,45.72
2018-09-06T18:59:15.161Z,44.26
2018-09-06T19:09:18.169Z,44.49
2018-09-06T19:19:21.033Z,44.89
2018-09-06T19:29:23.961Z,44.78
2018-09-06T19:39:26.905Z,45.75
2018-09-06T19:49:29.842Z,44.70
2018-09-06T19:59:32.787Z,45.26
2018-09-06T20:09:35.881Z,45.51
2018-09-06T20:19:38.848Z,44.51
2018-09-06T20:29:41.778Z,47.01
2018-09-06T20:39:44.816Z,45.15
2018-09-06T20:49:47.860Z,45.87
2018-09-06T20:59:50.816Z,44.72
2018-09-06T21:09:54.005Z,44.71
2018-09-06T21:19:57.047Z,45.73
2018-09-06T21:30:00.046Z,45.37
2018-09-06T21:40:03.729Z,44.86
2018-09-06T21:50:06.948Z,45.77
2018-09-06T22:00:10.099Z,45.72
2018-09-06T22:10:13.499Z,45.29
2018-09-06T22:20:16.628Z,45.78
2018-09-06T22:30:19.911Z,45.67
2018-09-06T22:40:23.215Z,45.87
2018-09-06T22:50:28.751Z,45.95
2018-09-06T23:00:32.929Z,45.39
2018-09-06T23:10:36.030Z,46.03
2018-09-06T23:20:40.265Z,46.10
2018-09-06T23:30:43.318Z,46.06
2018-09-06T23:40:51.983Z,45.51
2018-09-06T23:50:56.751Z,45.03
